LIPELIMA

Guest
Details From LIPE - BOLOGNA
To LIMA - Torino Aeritalia
Flight Number -
Tags generated
Created
Modified
Stats Distance 161 nm / 297 km
Max Altitude 12,500 ft / 3,810 m
Waypoints 3
Social Downloads 0
Likes 0
Share VATSIM

Download

Looking for another format? Having issues loading an existing format? Contact us
Advertisement - Login to hide

Notes

Basic altitude profile: - Ascent Rate: 2500ft/min - Ascent Speed: 250kts - Cruise Altitude: 35000ft - Cruise Speed: 420kts - Descent Rate: 1500ft/min - Descent Speed: 250kts Options: - Use NATs: yes - Use PACOTS: yes - Use low airways: yes - Use high airways: yes

Route

LIPE VOG LIMA

ID Type Via Altitude Latitude Longitude Leg Dist Tot Dist Heading (true) Name
O LIPE APT - 0 ft / 0 m 44.53545˚ 11.28866˚ - 0 nm - BOLOGNA
VOG VOR - 12,500 ft / 3,810 m 44.96442˚ 8.97027˚ 102 nm 102 nm 285° / 284° VOGHERA VOR-DME
O LIMA APT - 0 ft / 0 m 45.08564˚ 7.60422˚ 58 nm 160 nm 278° / 277° Torino Aeritalia

Altitude Profile

Advertisement - Login to hide

LIPE

Details ICAO LIPE (BLQ)
Name BOLOGNA
Region Italy
Timezone Europe/Rome (UTC+2.0)
Stats Elevation 123 ft / 37 m (AMSL)
Location 44.535446° 11.288662°
Runways 1
Magnetic Variation 2.968° E

METAR

LIPE 261220Z 14005KT 100V210 9999 FEW045 28/18 Q1019

Decode

TAF

TAF LIPE 261100Z 2612/2712 VRB05KT CAVOK

Decode

Departure Runways

ID Width Length Bearing (true) Bearing (mag) Surface Threshold Offset Overrun Length
12 148 ft / 45 m 9,185 ft / 2,800 m 116.78° 113.81° Asphalt 1,007 ft / 307 m 0 ft / 0 m
30 148 ft / 45 m 9,185 ft / 2,800 m 296.81° 293.84° Asphalt 1,188 ft / 362 m 200 ft / 61 m

LIMA

Details ICAO LIMA
Name Torino Aeritalia
Region Italy
Timezone Europe/Rome (UTC+2.0)
Stats Elevation 943 ft / 287 m (AMSL)
Location 45.085639° 7.604223°
Runways 2
Magnetic Variation 2.163° E

METAR

LIMA 261150Z VRB03KT 8000 FEW030 26/16 Q1020

Decode

TAF

Not found

Destination Runways

ID Width Length Bearing (true) Bearing (mag) Surface Threshold Offset Overrun Length
10L 98 ft / 30 m 3,515 ft / 1,071 m 101.44° 99.28° Asphalt 0 ft / 0 m 0 ft / 0 m
10R 131 ft / 40 m 2,452 ft / 747 m 101.56° 99.40° Grass 0 ft / 0 m 0 ft / 0 m
28L 131 ft / 40 m 2,452 ft / 747 m 281.57° 279.41° Grass 0 ft / 0 m 0 ft / 0 m
28R 98 ft / 30 m 3,515 ft / 1,071 m 281.45° 279.29° Asphalt 820 ft / 250 m 0 ft / 0 m